sensor_id;sensor_type;location;lat;lon;timestamp;P1;durP1;ratioP1;P2;durP2;ratioP2
6215;SDS011;3141;49.234;9.326;2024-03-07T00:00:26;43.53;;;21.60;;
6215;SDS011;3141;49.234;9.326;2024-03-07T00:01:10;45.17;;;23.17;;
6215;SDS011;3141;49.234;9.326;2024-03-07T00:01:52;46.67;;;22.30;;
6215;SDS011;3141;49.234;9.326;2024-03-07T00:02:34;45.63;;;22.27;;
6215;SDS011;3141;49.234;9.326;2024-03-07T00:03:17;56.30;;;23.40;;
6215;SDS011;3141;49.234;9.326;2024-03-07T00:03:59;39.97;;;20.80;;
6215;SDS011;3141;49.234;9.326;2024-03-07T00:04:42;44.80;;;23.43;;
6215;SDS011;3141;49.234;9.326;2024-03-07T00:05:24;48.93;;;21.70;;
6215;SDS011;3141;49.234;9.326;2024-03-07T00:06:06;48.67;;;23.43;;
6215;SDS011;3141;49.234;9.326;2024-03-07T00:06:50;54.08;;;23.67;;
6215;SDS011;3141;49.234;9.326;2024-03-07T00:07:33;50.70;;;25.30;;
6215;SDS011;3141;49.234;9.326;2024-03-07T00:08:15;51.30;;;23.97;;
6215;SDS011;3141;49.234;9.326;2024-03-07T00:08:57;51.90;;;24.57;;
6215;SDS011;3141;49.234;9.326;2024-03-07T00:09:40;55.53;;;25.23;;
6215;SDS011;3141;49.234;9.326;2024-03-07T00:10:22;59.00;;;24.93;;
6215;SDS011;3141;49.234;9.326;2024-03-07T00:11:05;57.90;;;23.93;;
6215;SDS011;3141;49.234;9.326;2024-03-07T00:11:49;52.38;;;24.83;;
6215;SDS011;3141;49.234;9.326;2024-03-07T00:12:31;62.63;;;26.07;;
6215;SDS011;3141;49.234;9.326;2024-03-07T00:13:17;56.22;;;25.98;;
6215;SDS011;3141;49.234;9.326;2024-03-07T00:13:59;57.00;;;25.80;;
6215;SDS011;3141;49.234;9.326;2024-03-07T00:14:42;48.10;;;24.50;;
6215;SDS011;3141;49.234;9.326;2024-03-07T00:15:24;53.30;;;23.83;;
6215;SDS011;3141;49.234;9.326;2024-03-07T00:16:07;46.17;;;22.97;;
6215;SDS011;3141;49.234;9.326;2024-03-07T00:16:50;46.55;;;23.92;;
6215;SDS011;3141;49.234;9.326;2024-03-07T00:17:33;52.93;;;24.03;;
6215;SDS011;3141;49.234;9.326;2024-03-07T00:18:16;55.50;;;24.65;;
6215;SDS011;3141;49.234;9.326;2024-03-07T00:18:59;50.77;;;25.10;;
6215;SDS011;3141;49.234;9.326;2024-03-07T00:19:42;57.53;;;25.48;;
6215;SDS011;3141;49.234;9.326;2024-03-07T00:20:25;55.20;;;25.55;;
6215;SDS011;3141;49.234;9.326;2024-03-07T00:21:08;59.00;;;25.63;;
6215;SDS011;3141;49.234;9.326;2024-03-07T00:21:50;54.70;;;25.40;;
6215;SDS011;3141;49.234;9.326;2024-03-07T00:22:32;52.30;;;24.07;;
6215;SDS011;3141;49.234;9.326;2024-03-07T00:23:15;55.57;;;25.27;;
6215;SDS011;3141;49.234;9.326;2024-03-07T00:23:58;62.90;;;27.17;;
6215;SDS011;3141;49.234;9.326;2024-03-07T00:24:41;56.43;;;26.53;;
6215;SDS011;3141;49.234;9.326;2024-03-07T00:25:24;54.28;;;24.00;;
6215;SDS011;3141;49.234;9.326;2024-03-07T00:26:08;51.40;;;25.50;;
6215;SDS011;3141;49.234;9.326;2024-03-07T00:26:50;59.17;;;26.30;;
6215;SDS011;3141;49.234;9.326;2024-03-07T00:27:33;54.57;;;25.73;;
6215;SDS011;3141;49.234;9.326;2024-03-07T00:28:19;53.67;;;24.55;;
6215;SDS011;3141;49.234;9.326;2024-03-07T00:29:01;52.23;;;26.20;;
6215;SDS011;3141;49.234;9.326;2024-03-07T00:29:44;53.88;;;25.00;;
6215;SDS011;3141;49.234;9.326;2024-03-07T00:30:34;53.45;;;25.17;;
6215;SDS011;3141;49.234;9.326;2024-03-07T00:31:17;51.93;;;24.50;;
6215;SDS011;3141;49.234;9.326;2024-03-07T00:31:59;51.27;;;24.67;;
6215;SDS011;3141;49.234;9.326;2024-03-07T00:32:41;49.63;;;26.57;;
6215;SDS011;3141;49.234;9.326;2024-03-07T00:33:24;60.53;;;27.97;;
6215;SDS011;3141;49.234;9.326;2024-03-07T00:34:12;62.28;;;27.50;;
6215;SDS011;3141;49.234;9.326;2024-03-07T00:34:56;63.38;;;28.30;;
6215;SDS011;3141;49.234;9.326;2024-03-07T00:35:41;67.75;;;29.00;;
6215;SDS011;3141;49.234;9.326;2024-03-07T00:36:26;61.25;;;28.70;;
6215;SDS011;3141;49.234;9.326;2024-03-07T00:37:08;57.90;;;27.97;;
6215;SDS011;3141;49.234;9.326;2024-03-07T00:37:50;59.27;;;27.13;;
6215;SDS011;3141;49.234;9.326;2024-03-07T00:38:33;59.63;;;26.50;;
6215;SDS011;3141;49.234;9.326;2024-03-07T00:39:15;65.50;;;28.83;;
6215;SDS011;3141;49.234;9.326;2024-03-07T00:39:57;62.17;;;28.77;;
6215;SDS011;3141;49.234;9.326;2024-03-07T00:40:40;60.00;;;28.63;;
6215;SDS011;3141;49.234;9.326;2024-03-07T00:41:22;59.23;;;28.17;;
6215;SDS011;3141;49.234;9.326;2024-03-07T00:42:05;54.50;;;28.00;;
6215;SDS011;3141;49.234;9.326;2024-03-07T00:42:47;55.70;;;27.43;;
6215;SDS011;3141;49.234;9.326;2024-03-07T00:43:30;54.47;;;27.77;;
6215;SDS011;3141;49.234;9.326;2024-03-07T00:44:13;58.78;;;27.98;;
6215;SDS011;3141;49.234;9.326;2024-03-07T00:44:55;56.40;;;28.00;;
6215;SDS011;3141;49.234;9.326;2024-03-07T00:45:38;56.60;;;29.47;;
6215;SDS011;3141;49.234;9.326;2024-03-07T00:46:20;71.27;;;30.03;;
6215;SDS011;3141;49.234;9.326;2024-03-07T00:47:03;63.90;;;27.67;;
6215;SDS011;3141;49.234;9.326;2024-03-07T00:47:46;60.17;;;27.88;;
6215;SDS011;3141;49.234;9.326;2024-03-07T00:48:30;54.20;;;27.63;;
6215;SDS011;3141;49.234;9.326;2024-03-07T00:49:12;55.20;;;28.20;;
6215;SDS011;3141;49.234;9.326;2024-03-07T00:49:55;56.83;;;27.33;;
6215;SDS011;3141;49.234;9.326;2024-03-07T00:50:37;56.13;;;25.20;;
6215;SDS011;3141;49.234;9.326;2024-03-07T00:51:19;53.93;;;25.30;;
6215;SDS011;3141;49.234;9.326;2024-03-07T00:52:02;53.17;;;25.70;;
6215;SDS011;3141;49.234;9.326;2024-03-07T00:52:44;56.53;;;25.03;;
6215;SDS011;3141;49.234;9.326;2024-03-07T00:53:27;51.10;;;24.75;;
6215;SDS011;3141;49.234;9.326;2024-03-07T00:54:10;47.77;;;24.87;;
6215;SDS011;3141;49.234;9.326;2024-03-07T00:54:54;49.22;;;23.83;;
6215;SDS011;3141;49.234;9.326;2024-03-07T00:55:37;43.87;;;21.63;;
6215;SDS011;3141;49.234;9.326;2024-03-07T00:56:19;47.23;;;23.10;;
6215;SDS011;3141;49.234;9.326;2024-03-07T00:57:03;45.97;;;24.90;;
6215;SDS011;3141;49.234;9.326;2024-03-07T00:57:46;47.88;;;23.25;;
6215;SDS011;3141;49.234;9.326;2024-03-07T00:58:28;49.07;;;23.93;;
6215;SDS011;3141;49.234;9.326;2024-03-07T00:59:11;45.50;;;23.03;;
6215;SDS011;3141;49.234;9.326;2024-03-07T00:59:53;52.63;;;23.37;;
6215;SDS011;3141;49.234;9.326;2024-03-07T01:00:35;45.40;;;24.13;;
6215;SDS011;3141;49.234;9.326;2024-03-07T01:01:18;46.40;;;23.15;;
6215;SDS011;3141;49.234;9.326;2024-03-07T01:02:01;54.30;;;25.20;;
6215;SDS011;3141;49.234;9.326;2024-03-07T01:02:44;61.03;;;25.40;;
6215;SDS011;3141;49.234;9.326;2024-03-07T01:03:28;58.10;;;25.90;;
6215;SDS011;3141;49.234;9.326;2024-03-07T01:04:10;56.37;;;26.53;;
6215;SDS011;3141;49.234;9.326;2024-03-07T01:04:53;55.55;;;27.75;;
6215;SDS011;3141;49.234;9.326;2024-03-07T01:05:36;56.30;;;25.88;;
6215;SDS011;3141;49.234;9.326;2024-03-07T01:06:20;54.97;;;26.52;;
6215;SDS011;3141;49.234;9.326;2024-03-07T01:07:02;54.33;;;26.93;;
6215;SDS011;3141;49.234;9.326;2024-03-07T01:07:45;58.97;;;26.60;;
6215;SDS011;3141;49.234;9.326;2024-03-07T01:08:30;57.33;;;26.30;;
6215;SDS011;3141;49.234;9.326;2024-03-07T01:09:14;54.53;;;26.65;;
6215;SDS011;3141;49.234;9.326;2024-03-07T01:09:58;60.33;;;26.73;;
6215;SDS011;3141;49.234;9.326;2024-03-07T01:10:42;59.58;;;28.33;;
6215;SDS011;3141;49.234;9.326;2024-03-07T01:11:25;61.53;;;28.27;;
6215;SDS011;3141;49.234;9.326;2024-03-07T01:12:07;61.37;;;28.00;;
6215;SDS011;3141;49.234;9.326;2024-03-07T01:12:52;62.65;;;29.58;;
6215;SDS011;3141;49.234;9.326;2024-03-07T01:13:36;61.22;;;28.13;;
6215;SDS011;3141;49.234;9.326;2024-03-07T01:14:19;58.45;;;28.52;;
6215;SDS011;3141;49.234;9.326;2024-03-07T01:15:01;70.07;;;29.73;;
6215;SDS011;3141;49.234;9.326;2024-03-07T01:15:46;67.70;;;29.38;;
6215;SDS011;3141;49.234;9.326;2024-03-07T01:16:28;60.97;;;29.90;;
6215;SDS011;3141;49.234;9.326;2024-03-07T01:17:10;66.93;;;30.17;;
6215;SDS011;3141;49.234;9.326;2024-03-07T01:17:53;62.80;;;30.65;;
6215;SDS011;3141;49.234;9.326;2024-03-07T01:18:37;67.30;;;30.33;;
6215;SDS011;3141;49.234;9.326;2024-03-07T01:19:19;63.00;;;29.92;;
6215;SDS011;3141;49.234;9.326;2024-03-07T01:20:02;63.73;;;29.37;;
6215;SDS011;3141;49.234;9.326;2024-03-07T01:20:45;72.63;;;29.83;;
6215;SDS011;3141;49.234;9.326;2024-03-07T01:21:28;64.25;;;29.52;;
6215;SDS011;3141;49.234;9.326;2024-03-07T01:22:10;68.47;;;31.10;;
6215;SDS011;3141;49.234;9.326;2024-03-07T01:22:53;63.33;;;29.03;;
6215;SDS011;3141;49.234;9.326;2024-03-07T01:23:35;74.77;;;31.97;;
6215;SDS011;3141;49.234;9.326;2024-03-07T01:24:17;71.90;;;31.47;;
6215;SDS011;3141;49.234;9.326;2024-03-07T01:25:02;61.22;;;29.88;;
6215;SDS011;3141;49.234;9.326;2024-03-07T01:25:46;68.85;;;30.05;;
6215;SDS011;3141;49.234;9.326;2024-03-07T01:26:28;62.37;;;29.17;;
6215;SDS011;3141;49.234;9.326;2024-03-07T01:27:11;66.23;;;31.17;;
6215;SDS011;3141;49.234;9.326;2024-03-07T01:27:53;62.20;;;29.73;;
6215;SDS011;3141;49.234;9.326;2024-03-07T01:28:35;59.23;;;29.90;;
6215;SDS011;3141;49.234;9.326;2024-03-07T01:29:18;59.43;;;28.50;;
6215;SDS011;3141;49.234;9.326;2024-03-07T01:30:00;58.93;;;28.80;;
6215;SDS011;3141;49.234;9.326;2024-03-07T01:30:43;60.23;;;28.50;;
6215;SDS011;3141;49.234;9.326;2024-03-07T01:31:26;62.63;;;28.30;;
6215;SDS011;3141;49.234;9.326;2024-03-07T01:32:08;63.23;;;28.23;;
6215;SDS011;3141;49.234;9.326;2024-03-07T01:32:50;61.70;;;29.17;;
6215;SDS011;3141;49.234;9.326;2024-03-07T01:33:33;62.10;;;28.23;;
6215;SDS011;3141;49.234;9.326;2024-03-07T01:34:16;65.77;;;29.37;;
6215;SDS011;3141;49.234;9.326;2024-03-07T01:35:04;61.05;;;29.95;;
6215;SDS011;3141;49.234;9.326;2024-03-07T01:35:49;61.50;;;28.98;;
6215;SDS011;3141;49.234;9.326;2024-03-07T01:36:32;72.67;;;31.40;;
6215;SDS011;3141;49.234;9.326;2024-03-07T01:37:14;67.97;;;31.13;;
6215;SDS011;3141;49.234;9.326;2024-03-07T01:37:56;64.40;;;32.03;;
6215;SDS011;3141;49.234;9.326;2024-03-07T01:38:39;74.53;;;31.87;;
6215;SDS011;3141;49.234;9.326;2024-03-07T01:39:21;73.43;;;32.33;;
6215;SDS011;3141;49.234;9.326;2024-03-07T01:40:03;64.57;;;30.57;;
6215;SDS011;3141;49.234;9.326;2024-03-07T01:40:47;65.82;;;31.20;;
6215;SDS011;3141;49.234;9.326;2024-03-07T01:41:29;65.23;;;30.73;;
6215;SDS011;3141;49.234;9.326;2024-03-07T01:42:12;66.60;;;30.93;;
6215;SDS011;3141;49.234;9.326;2024-03-07T01:42:54;67.87;;;30.83;;
6215;SDS011;3141;49.234;9.326;2024-03-07T01:43:37;61.07;;;29.90;;
6215;SDS011;3141;49.234;9.326;2024-03-07T01:44:19;68.83;;;31.60;;
6215;SDS011;3141;49.234;9.326;2024-03-07T01:45:02;71.70;;;31.53;;
6215;SDS011;3141;49.234;9.326;2024-03-07T01:45:45;64.17;;;31.10;;
6215;SDS011;3141;49.234;9.326;2024-03-07T01:46:29;76.25;;;34.25;;
6215;SDS011;3141;49.234;9.326;2024-03-07T01:47:12;73.33;;;33.00;;
6215;SDS011;3141;49.234;9.326;2024-03-07T01:47:55;70.67;;;31.83;;
6215;SDS011;3141;49.234;9.326;2024-03-07T01:48:38;68.65;;;30.50;;
6215;SDS011;3141;49.234;9.326;2024-03-07T01:49:22;72.22;;;31.33;;
6215;SDS011;3141;49.234;9.326;2024-03-07T01:50:04;69.67;;;31.33;;
6215;SDS011;3141;49.234;9.326;2024-03-07T01:50:48;68.90;;;31.70;;
6215;SDS011;3141;49.234;9.326;2024-03-07T01:51:30;76.03;;;31.97;;
6215;SDS011;3141;49.234;9.326;2024-03-07T01:52:13;69.00;;;30.63;;
6215;SDS011;3141;49.234;9.326;2024-03-07T01:52:55;67.77;;;31.60;;
6215;SDS011;3141;49.234;9.326;2024-03-07T01:53:38;68.47;;;31.35;;
6215;SDS011;3141;49.234;9.326;2024-03-07T01:54:21;73.77;;;32.57;;
6215;SDS011;3141;49.234;9.326;2024-03-07T01:55:04;74.35;;;33.17;;
6215;SDS011;3141;49.234;9.326;2024-03-07T01:55:47;74.93;;;32.05;;
6215;SDS011;3141;49.234;9.326;2024-03-07T01:56:30;72.17;;;32.00;;
6215;SDS011;3141;49.234;9.326;2024-03-07T01:57:12;68.73;;;31.47;;
6215;SDS011;3141;49.234;9.326;2024-03-07T01:58:02;64.93;;;31.00;;
6215;SDS011;3141;49.234;9.326;2024-03-07T01:58:47;63.47;;;30.25;;
6215;SDS011;3141;49.234;9.326;2024-03-07T01:59:29;74.82;;;33.80;;
6215;SDS011;3141;49.234;9.326;2024-03-07T02:00:12;62.87;;;32.37;;
6215;SDS011;3141;49.234;9.326;2024-03-07T02:00:55;73.30;;;31.20;;
6215;SDS011;3141;49.234;9.326;2024-03-07T02:01:37;69.77;;;31.43;;
6215;SDS011;3141;49.234;9.326;2024-03-07T02:02:20;67.88;;;31.48;;
6215;SDS011;3141;49.234;9.326;2024-03-07T02:03:03;67.97;;;31.20;;
6215;SDS011;3141;49.234;9.326;2024-03-07T02:03:48;70.10;;;32.67;;
6215;SDS011;3141;49.234;9.326;2024-03-07T02:04:30;67.20;;;32.10;;
6215;SDS011;3141;49.234;9.326;2024-03-07T02:05:13;63.37;;;30.73;;
6215;SDS011;3141;49.234;9.326;2024-03-07T02:05:55;72.20;;;30.63;;
6215;SDS011;3141;49.234;9.326;2024-03-07T02:06:38;69.63;;;31.40;;
6215;SDS011;3141;49.234;9.326;2024-03-07T02:07:20;68.23;;;29.50;;
6215;SDS011;3141;49.234;9.326;2024-03-07T02:08:03;62.90;;;28.87;;
6215;SDS011;3141;49.234;9.326;2024-03-07T02:08:45;67.17;;;29.30;;
6215;SDS011;3141;49.234;9.326;2024-03-07T02:09:29;63.35;;;30.35;;
6215;SDS011;3141;49.234;9.326;2024-03-07T02:10:12;69.00;;;31.43;;
6215;SDS011;3141;49.234;9.326;2024-03-07T02:10:55;70.57;;;30.58;;
6215;SDS011;3141;49.234;9.326;2024-03-07T02:11:37;66.93;;;30.93;;
6215;SDS011;3141;49.234;9.326;2024-03-07T02:12:20;58.77;;;29.13;;
6215;SDS011;3141;49.234;9.326;2024-03-07T02:13:02;66.93;;;28.57;;
6215;SDS011;3141;49.234;9.326;2024-03-07T02:13:45;58.37;;;28.50;;
6215;SDS011;3141;49.234;9.326;2024-03-07T02:14:28;57.03;;;28.03;;
6215;SDS011;3141;49.234;9.326;2024-03-07T02:15:11;74.50;;;29.75;;
6215;SDS011;3141;49.234;9.326;2024-03-07T02:15:55;58.40;;;29.13;;
6215;SDS011;3141;49.234;9.326;2024-03-07T02:16:38;59.00;;;28.37;;
6215;SDS011;3141;49.234;9.326;2024-03-07T02:17:23;67.50;;;30.00;;
6215;SDS011;3141;49.234;9.326;2024-03-07T02:18:06;62.78;;;29.15;;
6215;SDS011;3141;49.234;9.326;2024-03-07T02:18:48;67.80;;;30.17;;
6215;SDS011;3141;49.234;9.326;2024-03-07T02:19:32;67.05;;;29.42;;
6215;SDS011;3141;49.234;9.326;2024-03-07T02:20:14;68.83;;;29.17;;
6215;SDS011;3141;49.234;9.326;2024-03-07T02:20:58;67.53;;;29.30;;
6215;SDS011;3141;49.234;9.326;2024-03-07T02:21:40;65.03;;;29.70;;
6215;SDS011;3141;49.234;9.326;2024-03-07T02:22:22;59.90;;;27.77;;
6215;SDS011;3141;49.234;9.326;2024-03-07T02:23:06;64.35;;;29.20;;
6215;SDS011;3141;49.234;9.326;2024-03-07T02:23:49;61.87;;;28.43;;
6215;SDS011;3141;49.234;9.326;2024-03-07T02:24:31;66.73;;;28.30;;
6215;SDS011;3141;49.234;9.326;2024-03-07T02:25:14;63.67;;;29.43;;
6215;SDS011;3141;49.234;9.326;2024-03-07T02:25:57;64.05;;;29.55;;
6215;SDS011;3141;49.234;9.326;2024-03-07T02:26:41;61.55;;;29.60;;
6215;SDS011;3141;49.234;9.326;2024-03-07T02:27:23;69.20;;;28.17;;
6215;SDS011;3141;49.234;9.326;2024-03-07T02:28:05;61.33;;;29.50;;
6215;SDS011;3141;49.234;9.326;2024-03-07T02:28:48;59.70;;;28.43;;
6215;SDS011;3141;49.234;9.326;2024-03-07T02:29:31;66.97;;;29.33;;
6215;SDS011;3141;49.234;9.326;2024-03-07T02:30:13;60.70;;;28.57;;
6215;SDS011;3141;49.234;9.326;2024-03-07T02:30:56;60.03;;;28.63;;
6215;SDS011;3141;49.234;9.326;2024-03-07T02:31:39;62.20;;;28.80;;
6215;SDS011;3141;49.234;9.326;2024-03-07T02:32:23;64.35;;;28.42;;
6215;SDS011;3141;49.234;9.326;2024-03-07T02:33:06;59.43;;;28.17;;
6215;SDS011;3141;49.234;9.326;2024-03-07T02:33:48;65.87;;;28.63;;
6215;SDS011;3141;49.234;9.326;2024-03-07T02:34:31;57.07;;;28.27;;
6215;SDS011;3141;49.234;9.326;2024-03-07T02:35:13;61.87;;;27.77;;
6215;SDS011;3141;49.234;9.326;2024-03-07T02:35:57;55.38;;;27.52;;
6215;SDS011;3141;49.234;9.326;2024-03-07T02:36:40;61.33;;;28.67;;
6215;SDS011;3141;49.234;9.326;2024-03-07T02:37:22;62.53;;;28.70;;
6215;SDS011;3141;49.234;9.326;2024-03-07T02:38:05;63.47;;;29.40;;
6215;SDS011;3141;49.234;9.326;2024-03-07T02:38:47;58.37;;;29.10;;
6215;SDS011;3141;49.234;9.326;2024-03-07T02:39:29;59.63;;;29.60;;
6215;SDS011;3141;49.234;9.326;2024-03-07T02:40:12;62.03;;;29.67;;
6215;SDS011;3141;49.234;9.326;2024-03-07T02:40:56;62.22;;;28.70;;
6215;SDS011;3141;49.234;9.326;2024-03-07T02:41:40;55.50;;;27.08;;
6215;SDS011;3141;49.234;9.326;2024-03-07T02:42:23;57.13;;;29.95;;
6215;SDS011;3141;49.234;9.326;2024-03-07T02:43:05;61.83;;;29.63;;
6215;SDS011;3141;49.234;9.326;2024-03-07T02:43:49;58.13;;;29.52;;
6215;SDS011;3141;49.234;9.326;2024-03-07T02:44:31;62.63;;;28.30;;
6215;SDS011;3141;49.234;9.326;2024-03-07T02:45:14;58.37;;;28.40;;
6215;SDS011;3141;49.234;9.326;2024-03-07T02:45:56;62.13;;;27.03;;
6215;SDS011;3141;49.234;9.326;2024-03-07T02:46:39;68.90;;;28.57;;
6215;SDS011;3141;49.234;9.326;2024-03-07T02:47:21;54.93;;;27.63;;
6215;SDS011;3141;49.234;9.326;2024-03-07T02:48:06;50.47;;;26.88;;
6215;SDS011;3141;49.234;9.326;2024-03-07T02:48:51;56.38;;;28.00;;
6215;SDS011;3141;49.234;9.326;2024-03-07T02:49:33;53.13;;;27.30;;
6215;SDS011;3141;49.234;9.326;2024-03-07T02:50:16;56.92;;;29.13;;
6215;SDS011;3141;49.234;9.326;2024-03-07T02:50:59;58.50;;;28.80;;
6215;SDS011;3141;49.234;9.326;2024-03-07T02:51:41;63.13;;;29.60;;
6215;SDS011;3141;49.234;9.326;2024-03-07T02:52:24;50.97;;;27.37;;
6215;SDS011;3141;49.234;9.326;2024-03-07T02:53:06;53.63;;;27.70;;
6215;SDS011;3141;49.234;9.326;2024-03-07T02:53:49;60.43;;;29.57;;
6215;SDS011;3141;49.234;9.326;2024-03-07T02:54:31;61.10;;;29.07;;
6215;SDS011;3141;49.234;9.326;2024-03-07T02:55:14;52.07;;;27.60;;
6215;SDS011;3141;49.234;9.326;2024-03-07T02:55:57;58.20;;;27.57;;
6215;SDS011;3141;49.234;9.326;2024-03-07T02:56:40;54.40;;;28.55;;
6215;SDS011;3141;49.234;9.326;2024-03-07T02:57:23;51.30;;;26.97;;
6215;SDS011;3141;49.234;9.326;2024-03-07T02:58:05;55.60;;;27.20;;
6215;SDS011;3141;49.234;9.326;2024-03-07T02:58:48;53.40;;;28.42;;
6215;SDS011;3141;49.234;9.326;2024-03-07T02:59:31;51.80;;;26.73;;
6215;SDS011;3141;49.234;9.326;2024-03-07T03:00:14;49.63;;;26.90;;
6215;SDS011;3141;49.234;9.326;2024-03-07T03:01:02;51.55;;;27.20;;
6215;SDS011;3141;49.234;9.326;2024-03-07T03:01:47;50.55;;;26.30;;
6215;SDS011;3141;49.234;9.326;2024-03-07T03:02:30;54.60;;;26.83;;
6215;SDS011;3141;49.234;9.326;2024-03-07T03:03:12;55.37;;;27.97;;
6215;SDS011;3141;49.234;9.326;2024-03-07T03:03:54;53.83;;;27.20;;
6215;SDS011;3141;49.234;9.326;2024-03-07T03:04:37;52.10;;;26.87;;
6215;SDS011;3141;49.234;9.326;2024-03-07T03:05:19;49.17;;;26.10;;
6215;SDS011;3141;49.234;9.326;2024-03-07T03:06:01;53.03;;;27.33;;
6215;SDS011;3141;49.234;9.326;2024-03-07T03:06:44;51.20;;;26.00;;
6215;SDS011;3141;49.234;9.326;2024-03-07T03:07:27;53.40;;;28.20;;
6215;SDS011;3141;49.234;9.326;2024-03-07T03:08:09;58.20;;;27.93;;
6215;SDS011;3141;49.234;9.326;2024-03-07T03:08:52;49.50;;;27.37;;
6215;SDS011;3141;49.234;9.326;2024-03-07T03:09:36;50.92;;;28.52;;
6215;SDS011;3141;49.234;9.326;2024-03-07T03:10:22;58.40;;;29.63;;
6215;SDS011;3141;49.234;9.326;2024-03-07T03:11:10;59.90;;;29.40;;
6215;SDS011;3141;49.234;9.326;2024-03-07T03:11:55;59.53;;;30.08;;
6215;SDS011;3141;49.234;9.326;2024-03-07T03:12:38;61.43;;;30.40;;
6215;SDS011;3141;49.234;9.326;2024-03-07T03:13:20;62.87;;;28.60;;
6215;SDS011;3141;49.234;9.326;2024-03-07T03:14:02;60.63;;;31.00;;
6215;SDS011;3141;49.234;9.326;2024-03-07T03:14:45;64.78;;;29.90;;
6215;SDS011;3141;49.234;9.326;2024-03-07T03:15:28;56.07;;;28.30;;
6215;SDS011;3141;49.234;9.326;2024-03-07T03:16:11;62.13;;;29.57;;
6215;SDS011;3141;49.234;9.326;2024-03-07T03:16:53;59.60;;;29.37;;
6215;SDS011;3141;49.234;9.326;2024-03-07T03:17:35;59.17;;;28.93;;
6215;SDS011;3141;49.234;9.326;2024-03-07T03:18:18;58.13;;;29.17;;
6215;SDS011;3141;49.234;9.326;2024-03-07T03:19:01;60.95;;;30.00;;
6215;SDS011;3141;49.234;9.326;2024-03-07T03:19:43;55.73;;;28.20;;
6215;SDS011;3141;49.234;9.326;2024-03-07T03:20:26;59.37;;;29.00;;
6215;SDS011;3141;49.234;9.326;2024-03-07T03:21:15;60.03;;;28.73;;
6215;SDS011;3141;49.234;9.326;2024-03-07T03:21:58;60.03;;;28.83;;
6215;SDS011;3141;49.234;9.326;2024-03-07T03:22:40;65.53;;;29.23;;
6215;SDS011;3141;49.234;9.326;2024-03-07T03:23:25;58.58;;;27.50;;
6215;SDS011;3141;49.234;9.326;2024-03-07T03:24:08;63.13;;;29.57;;
6215;SDS011;3141;49.234;9.326;2024-03-07T03:24:53;64.97;;;30.42;;
6215;SDS011;3141;49.234;9.326;2024-03-07T03:25:37;55.67;;;28.70;;
6215;SDS011;3141;49.234;9.326;2024-03-07T03:26:20;60.87;;;28.87;;
6215;SDS011;3141;49.234;9.326;2024-03-07T03:27:03;58.70;;;28.45;;
6215;SDS011;3141;49.234;9.326;2024-03-07T03:27:47;60.75;;;29.63;;
6215;SDS011;3141;49.234;9.326;2024-03-07T03:28:29;64.70;;;30.37;;
6215;SDS011;3141;49.234;9.326;2024-03-07T03:29:11;59.47;;;30.37;;
6215;SDS011;3141;49.234;9.326;2024-03-07T03:29:55;57.30;;;29.60;;
6215;SDS011;3141;49.234;9.326;2024-03-07T03:30:38;64.93;;;29.43;;
6215;SDS011;3141;49.234;9.326;2024-03-07T03:31:21;60.50;;;29.45;;
6215;SDS011;3141;49.234;9.326;2024-03-07T03:32:03;60.43;;;29.70;;
6215;SDS011;3141;49.234;9.326;2024-03-07T03:32:46;56.50;;;28.47;;
6215;SDS011;3141;49.234;9.326;2024-03-07T03:33:29;61.78;;;29.48;;
6215;SDS011;3141;49.234;9.326;2024-03-07T03:34:12;59.70;;;29.30;;
6215;SDS011;3141;49.234;9.326;2024-03-07T03:34:54;59.80;;;28.57;;
6215;SDS011;3141;49.234;9.326;2024-03-07T03:35:37;60.77;;;29.33;;
6215;SDS011;3141;49.234;9.326;2024-03-07T03:36:19;61.58;;;26.52;;
6215;SDS011;3141;49.234;9.326;2024-03-07T03:37:02;57.70;;;28.45;;
6215;SDS011;3141;49.234;9.326;2024-03-07T03:37:45;59.10;;;28.17;;
6215;SDS011;3141;49.234;9.326;2024-03-07T03:38:27;55.50;;;27.27;;
6215;SDS011;3141;49.234;9.326;2024-03-07T03:39:10;63.30;;;29.27;;
6215;SDS011;3141;49.234;9.326;2024-03-07T03:39:55;59.97;;;29.55;;
6215;SDS011;3141;49.234;9.326;2024-03-07T03:40:37;59.07;;;30.33;;
6215;SDS011;3141;49.234;9.326;2024-03-07T03:41:20;57.97;;;28.17;;
6215;SDS011;3141;49.234;9.326;2024-03-07T03:42:02;61.40;;;29.23;;
6215;SDS011;3141;49.234;9.326;2024-03-07T03:42:45;58.90;;;28.23;;
6215;SDS011;3141;49.234;9.326;2024-03-07T03:43:27;57.70;;;29.93;;
6215;SDS011;3141;49.234;9.326;2024-03-07T03:44:09;54.50;;;27.73;;
6215;SDS011;3141;49.234;9.326;2024-03-07T03:44:53;59.92;;;29.33;;
6215;SDS011;3141;49.234;9.326;2024-03-07T03:45:35;58.23;;;29.10;;
6215;SDS011;3141;49.234;9.326;2024-03-07T03:46:18;54.37;;;28.40;;
6215;SDS011;3141;49.234;9.326;2024-03-07T03:47:00;58.87;;;28.67;;
6215;SDS011;3141;49.234;9.326;2024-03-07T03:47:44;59.55;;;28.65;;
6215;SDS011;3141;49.234;9.326;2024-03-07T03:48:27;65.80;;;29.63;;
6215;SDS011;3141;49.234;9.326;2024-03-07T03:49:09;58.03;;;28.37;;
6215;SDS011;3141;49.234;9.326;2024-03-07T03:49:52;60.93;;;29.53;;
6215;SDS011;3141;49.234;9.326;2024-03-07T03:50:34;58.37;;;28.80;;
6215;SDS011;3141;49.234;9.326;2024-03-07T03:51:17;59.93;;;28.87;;
6215;SDS011;3141;49.234;9.326;2024-03-07T03:51:59;56.07;;;27.97;;
6215;SDS011;3141;49.234;9.326;2024-03-07T03:52:41;63.87;;;29.03;;
6215;SDS011;3141;49.234;9.326;2024-03-07T03:53:24;66.60;;;30.53;;
6215;SDS011;3141;49.234;9.326;2024-03-07T03:54:06;58.47;;;28.13;;
6215;SDS011;3141;49.234;9.326;2024-03-07T03:54:49;57.47;;;28.97;;
6215;SDS011;3141;49.234;9.326;2024-03-07T03:55:31;60.73;;;30.70;;
6215;SDS011;3141;49.234;9.326;2024-03-07T03:56:14;54.63;;;27.83;;
6215;SDS011;3141;49.234;9.326;2024-03-07T03:56:57;67.22;;;30.45;;
6215;SDS011;3141;49.234;9.326;2024-03-07T03:57:41;64.50;;;29.80;;
6215;SDS011;3141;49.234;9.326;2024-03-07T03:58:25;56.67;;;29.17;;
6215;SDS011;3141;49.234;9.326;2024-03-07T03:59:07;59.03;;;29.87;;
6215;SDS011;3141;49.234;9.326;2024-03-07T03:59:51;63.90;;;30.15;;
6215;SDS011;3141;49.234;9.326;2024-03-07T04:00:34;62.22;;;29.63;;
6215;SDS011;3141;49.234;9.326;2024-03-07T04:01:16;59.40;;;29.70;;
6215;SDS011;3141;49.234;9.326;2024-03-07T04:01:59;63.20;;;30.17;;
6215;SDS011;3141;49.234;9.326;2024-03-07T04:02:42;61.63;;;28.87;;
6215;SDS011;3141;49.234;9.326;2024-03-07T04:03:26;63.08;;;30.52;;
6215;SDS011;3141;49.234;9.326;2024-03-07T04:04:08;66.03;;;30.50;;
6215;SDS011;3141;49.234;9.326;2024-03-07T04:04:51;66.37;;;30.57;;
6215;SDS011;3141;49.234;9.326;2024-03-07T04:05:34;65.07;;;30.77;;
6215;SDS011;3141;49.234;9.326;2024-03-07T04:06:16;61.80;;;30.80;;
6215;SDS011;3141;49.234;9.326;2024-03-07T04:07:00;64.80;;;29.58;;
6215;SDS011;3141;49.234;9.326;2024-03-07T04:07:43;65.20;;;29.67;;
6215;SDS011;3141;49.234;9.326;2024-03-07T04:08:25;59.57;;;28.50;;
6215;SDS011;3141;49.234;9.326;2024-03-07T04:09:08;68.13;;;29.73;;
6215;SDS011;3141;49.234;9.326;2024-03-07T04:09:50;66.30;;;30.73;;
6215;SDS011;3141;49.234;9.326;2024-03-07T04:10:33;68.70;;;31.50;;
6215;SDS011;3141;49.234;9.326;2024-03-07T04:11:15;67.60;;;31.17;;
6215;SDS011;3141;49.234;9.326;2024-03-07T04:11:58;71.78;;;32.72;;
6215;SDS011;3141;49.234;9.326;2024-03-07T04:12:41;59.70;;;29.23;;
6215;SDS011;3141;49.234;9.326;2024-03-07T04:13:24;70.53;;;30.80;;
6215;SDS011;3141;49.234;9.326;2024-03-07T04:14:07;66.85;;;30.42;;
6215;SDS011;3141;49.234;9.326;2024-03-07T04:14:50;63.37;;;30.87;;
6215;SDS011;3141;49.234;9.326;2024-03-07T04:15:32;65.67;;;29.90;;
6215;SDS011;3141;49.234;9.326;2024-03-07T04:16:15;64.73;;;30.97;;
6215;SDS011;3141;49.234;9.326;2024-03-07T04:16:58;74.35;;;30.80;;
6215;SDS011;3141;49.234;9.326;2024-03-07T04:17:41;77.87;;;30.23;;
6215;SDS011;3141;49.234;9.326;2024-03-07T04:18:23;62.90;;;30.53;;
6215;SDS011;3141;49.234;9.326;2024-03-07T04:19:05;63.77;;;30.33;;